Main page
METAR-TAF:

METAR-TAF

Airports :

Taubaté, São Paulo, Brazil

latitude: 23-02-26S, longitude: 45-31-00W, elevation: 577 m

Current weather observation

The report was made 1 hour and 25 minutes ago, at 19:00 UTC
Wind 4 kt from the East/Northeast, varying between Northeast and East
Temperature 28°C
Humidity 51%
Pressure 1016 hPa
Visibility 10 km or more
Scattered clouds at a height of 4000 ft
Scattered clouds at a height of 10000 ft

METAR: SBTA 281900Z 06004KT 040V100 9999 SCT040 SCT100 28/17 Q1016

Time: 17:25 (20:25 UTC)


TAF: missing

Weather observations and forecasts of more than 4000 airports (METAR and TAF reports).

The available stations are represented by yellow and red dots on the map.

Hover mouse over dot to see the name of the station.

Then click to see weather observations and forecasts.

To change the map : click on the green buttons with a black cross to zoom in, on the green button with a dash to zoom out, or on the green arrows for adjacent maps.


METAR-TAF: